地図

経路データ

SID SEASON NUMBER BASIN SUBBASIN NAME ISO_TIME NATURE LAT LON WMO_WIND WMO_PRES WMO_AGENCY TRACK_TYPE DIST2LAND LANDFALL IFLAG USA_AGENCY USA_ATCF_ID USA_LAT USA_LON USA_RECORD USA_STATUS USA_WIND USA_PRES USA_SSHS USA_R34_NE USA_R34_SE USA_R34_SW USA_R34_NW USA_R50_NE USA_R50_SE USA_R50_SW USA_R50_NW USA_R64_NE USA_R64_SE USA_R64_SW USA_R64_NW USA_POCI USA_ROCI USA_RMW USA_EYE TOKYO_LAT TOKYO_LON TOKYO_GRADE TOKYO_WIND TOKYO_PRES TOKYO_R50_DIR TOKYO_R50_LONG TOKYO_R50_SHORT TOKYO_R30_DIR TOKYO_R30_LONG TOKYO_R30_SHORT TOKYO_LAND CMA_LAT CMA_LON CMA_CAT CMA_WIND CMA_PRES HKO_LAT HKO_LON HKO_CAT HKO_WIND HKO_PRES NEWDELHI_LAT NEWDELHI_LON NEWDELHI_GRADE NEWDELHI_WIND NEWDELHI_PRES NEWDELHI_CI NEWDELHI_DP NEWDELHI_POCI REUNION_LAT REUNION_LON REUNION_TYPE REUNION_WIND REUNION_PRES REUNION_TNUM REUNION_CI REUNION_RMW REUNION_R34_NE REUNION_R34_SE REUNION_R34_SW REUNION_R34_NW REUNION_R50_NE REUNION_R50_SE REUNION_R50_SW REUNION_R50_NW REUNION_R64_NE REUNION_R64_SE REUNION_R64_SW REUNION_R64_NW BOM_LAT BOM_LON BOM_TYPE BOM_WIND BOM_PRES BOM_TNUM BOM_CI BOM_RMW BOM_R34_NE BOM_R34_SE BOM_R34_SW BOM_R34_NW BOM_R50_NE BOM_R50_SE BOM_R50_SW BOM_R50_NW BOM_R64_NE BOM_R64_SE BOM_R64_SW BOM_R64_NW BOM_ROCI BOM_POCI BOM_EYE BOM_POS_METHOD BOM_PRES_METHOD NADI_LAT NADI_LON NADI_CAT NADI_WIND NADI_PRES WELLINGTON_LAT WELLINGTON_LON WELLINGTON_WIND WELLINGTON_PRES DS824_LAT DS824_LON DS824_STAGE DS824_WIND DS824_PRES TD9636_LAT TD9636_LON TD9636_STAGE TD9636_WIND TD9636_PRES TD9635_LAT TD9635_LON TD9635_WIND TD9635_PRES TD9635_ROCI NEUMANN_LAT NEUMANN_LON NEUMANN_CLASS NEUMANN_WIND NEUMANN_PRES MLC_LAT MLC_LON MLC_CLASS MLC_WIND MLC_PRES USA_GUST BOM_GUST BOM_GUST_PER REUNION_GUST REUNION_GUST_PER USA_SEAHGT USA_SEARAD_NE USA_SEARAD_SE USA_SEARAD_SW USA_SEARAD_NW STORM_SPEED STORM_DIR
1899215N12329 1899 21 NA NA NOT_NAMED 1899-08-03 00:00:00 TS 11.7000 -31.0000 35 hurdat_atl main 1500 1500 O_____________ hurdat_atl AL031899 11.7000 -31.0000 TS 35 0 13 273
1899215N12329 1899 21 NA NA NOT_NAMED 1899-08-03 03:00:00 TS 11.7403 -31.6825 main 1574 1574 P_____________ AL031899 11.7403 -31.6825 TS 40 0 14 274
1899215N12329 1899 21 NA NA NOT_NAMED 1899-08-03 06:00:00 TS 11.8000 -32.4000 45 hurdat_atl main 1645 1645 O_____________ hurdat_atl AL031899 11.8000 -32.4000 TS 45 0 15 276
1899215N12329 1899 21 NA NA NOT_NAMED 1899-08-03 09:00:00 TS 11.8923 -33.1775 main 1728 1728 P_____________ AL031899 11.8923 -33.1775 TS 47 0 16 277
1899215N12329 1899 21 NA NA NOT_NAMED 1899-08-03 12:00:00 TS 12.0000 -34.0000 50 hurdat_atl main 1788 1769 O_____________ hurdat_atl AL031899 12.0000 -34.0000 TS 50 0 16 277
1899215N12329 1899 21 NA NA NOT_NAMED 1899-08-03 15:00:00 TS 12.0998 -34.8426 main 1769 1751 P_____________ AL031899 12.0998 -34.8426 TS 52 0 17 277
1899215N12329 1899 21 NA NA NOT_NAMED 1899-08-03 18:00:00 TS 12.2000 -35.7000 55 995 hurdat_atl main 1751 1740 O_____________ hurdat_atl AL031899 12.2000 -35.7000 TS 55 995 0 17 277
1899215N12329 1899 21 NA NA NOT_NAMED 1899-08-03 21:00:00 TS 12.2999 -36.5725 main 1739 1730 P_____________ AL031899 12.2999 -36.5725 TS 57 0 17 277
1899215N12329 1899 21 NA NA NOT_NAMED 1899-08-04 00:00:00 TS 12.4000 -37.4000 60 hurdat_atl main 1734 1718 O_____________ hurdat_atl AL031899 12.4000 -37.4000 TS 60 0 15 278
1899215N12329 1899 21 NA NA NOT_NAMED 1899-08-04 03:00:00 TS 12.5071 -38.1150 main 1718 1659 P_____________ AL031899 12.5071 -38.1150 TS 60 0 14 278
1899215N12329 1899 21 NA NA NOT_NAMED 1899-08-04 06:00:00 TS 12.6000 -38.8000 60 hurdat_atl main 1659 1596 O_____________ hurdat_atl AL031899 12.6000 -38.8000 TS 60 0 14 276
1899215N12329 1899 21 NA NA NOT_NAMED 1899-08-04 09:00:00 TS 12.6422 -39.5278 main 1596 1532 P_____________ AL031899 12.6422 -39.5278 TS 60 0 15 274
1899215N12329 1899 21 NA NA NOT_NAMED 1899-08-04 12:00:00 TS 12.7000 -40.3000 60 hurdat_atl main 1532 1471 O_____________ hurdat_atl AL031899 12.7000 -40.3000 TS 60 0 16 277
1899215N12329 1899 21 NA NA NOT_NAMED 1899-08-04 15:00:00 TS 12.8196 -41.1127 main 1471 1420 P_____________ AL031899 12.8196 -41.1127 TS 60 0 17 280
1899215N12329 1899 21 NA NA NOT_NAMED 1899-08-04 18:00:00 TS 13.0000 -42.0000 60 hurdat_atl main 1412 1351 O_____________ hurdat_atl AL031899 13.0000 -42.0000 TS 60 0 19 283
1899215N12329 1899 21 NA NA NOT_NAMED 1899-08-04 21:00:00 TS 13.2578 -43.0146 main 1359 1305 P_____________ AL031899 13.2578 -43.0146 TS 60 0 20 284
1899215N12329 1899 21 NA NA NOT_NAMED 1899-08-05 00:00:00 TS 13.5000 -44.0000 60 hurdat_atl main 1305 1269 O_____________ hurdat_atl AL031899 13.5000 -44.0000 TS 60 0 18 282
1899215N12329 1899 21 NA NA NOT_NAMED 1899-08-05 03:00:00 TS 13.6144 -44.7879 main 1262 1229 P_____________ AL031899 13.6144 -44.7879 TS 60 0 15 278
1899215N12329 1899 21 NA NA NOT_NAMED 1899-08-05 06:00:00 TS 13.7000 -45.5000 60 hurdat_atl main 1229 1191 O_____________ hurdat_atl AL031899 13.7000 -45.5000 TS 60 0 14 279
1899215N12329 1899 21 NA NA NOT_NAMED 1899-08-05 09:00:00 TS 13.8421 -46.2351 main 1191 1161 P_____________ AL031899 13.8421 -46.2351 TS 60 0 15 282
1899215N12329 1899 21 NA NA NOT_NAMED 1899-08-05 12:00:00 TS 14.0000 -47.0000 60 hurdat_atl main 1161 1127 O_____________ hurdat_atl AL031899 14.0000 -47.0000 TS 60 0 16 281
1899215N12329 1899 21 NA NA NOT_NAMED 1899-08-05 15:00:00 TS 14.1497 -47.8201 main 1127 1107 P_____________ AL031899 14.1497 -47.8201 TS 62 0 17 280
1899215N12329 1899 21 NA NA NOT_NAMED 1899-08-05 18:00:00 TS 14.3000 -48.7000 65 hurdat_atl main 1103 1076 O_____________ hurdat_atl AL031899 14.3000 -48.7000 HU 65 1 18 280
1899215N12329 1899 21 NA NA NOT_NAMED 1899-08-05 21:00:00 TS 14.4574 -49.6425 main 1086 1055 P_____________ AL031899 14.4574 -49.6425 HU 67 1 19 279
1899215N12329 1899 21 NA NA NOT_NAMED 1899-08-06 00:00:00 TS 14.6000 -50.6000 70 hurdat_atl main 1051 1028 O_____________ hurdat_atl AL031899 14.6000 -50.6000 HU 70 1 18 278
1899215N12329 1899 21 NA NA NOT_NAMED 1899-08-06 03:00:00 TS 14.6996 -51.5078 main 1028 1014 P_____________ AL031899 14.6996 -51.5078 HU 72 1 18 277
1899215N12329 1899 21 NA NA NOT_NAMED 1899-08-06 06:00:00 TS 14.8000 -52.4000 75 hurdat_atl main 1016 958 O_____________ hurdat_atl AL031899 14.8000 -52.4000 HU 75 1 18 278
1899215N12329 1899 21 NA NA NOT_NAMED 1899-08-06 09:00:00 TS 14.9423 -53.3150 main 958 886 P_____________ AL031899 14.9423 -53.3150 HU 77 1 18 280
1899215N12329 1899 21 NA NA NOT_NAMED 1899-08-06 12:00:00 TS 15.1000 -54.2000 80 hurdat_atl main 886 822 O_____________ hurdat_atl AL031899 15.1000 -54.2000 HU 80 1 17 281
1899215N12329 1899 21 NA NA NOT_NAMED 1899-08-06 15:00:00 TS 15.2496 -55.0151 main 822 770 P_____________ AL031899 15.2496 -55.0151 HU 85 2 16 281
1899215N12329 1899 21 NA NA NOT_NAMED 1899-08-06 18:00:00 TS 15.4000 -55.8000 90 hurdat_atl main 770 718 O_____________ hurdat_atl AL031899 15.4000 -55.8000 HU 90 2 16 281
1899215N12329 1899 21 NA NA NOT_NAMED 1899-08-06 21:00:00 TS 15.5572 -56.6000 main 726 682 P_____________ AL031899 15.5572 -56.6000 HU 95 2 16 281
1899215N12329 1899 21 NA NA NOT_NAMED 1899-08-07 00:00:00 TS 15.7000 -57.4000 100 hurdat_atl main 682 646 O_____________ hurdat_atl AL031899 15.7000 -57.4000 HU 100 3 16 279
1899215N12329 1899 21 NA NA NOT_NAMED 1899-08-07 03:00:00 TS 15.7998 -58.2077 main 646 621 P_____________ AL031899 15.7998 -58.2077 HU 105 3 16 277
1899215N12329 1899 21 NA NA NOT_NAMED 1899-08-07 06:00:00 TS 15.9000 -59.0000 110 hurdat_atl main 621 609 O_____________ hurdat_atl AL031899 15.9000 -59.0000 HU 110 3 15 279
1899215N12329 1899 21 NA NA NOT_NAMED 1899-08-07 09:00:00 TS 16.0422 -59.7575 main 607 586 P_____________ AL031899 16.0422 -59.7575 HU 115 4 15 282
1899215N12329 1899 21 NA CS NOT_NAMED 1899-08-07 12:00:00 TS 16.2000 -60.5000 120 hurdat_atl main 586 513 O_____________ hurdat_atl AL031899 16.2000 -60.5000 HU 120 4 15 282
1899215N12329 1899 21 NA CS NOT_NAMED 1899-08-07 15:00:00 TS 16.3423 -61.2577 main 503 426 P_____________ AL031899 16.3423 -61.2577 HU 125 4 15 282
1899215N12329 1899 21 NA CS NOT_NAMED 1899-08-07 18:00:00 TS 16.5000 -62.0000 130 930 hurdat_atl main 426 350 O_____________ hurdat_atl AL031899 16.5000 -62.0000 HU 130 930 4 14 284
1899215N12329 1899 21 NA CS NOT_NAMED 1899-08-07 21:00:00 TS 16.6847 -62.7077 main 350 274 P_____________ AL031899 16.6847 -62.7077 HU 130 4 14 287
1899215N12329 1899 21 NA CS NOT_NAMED 1899-08-08 00:00:00 TS 16.9000 -63.4000 130 hurdat_atl main 274 201 O_____________ hurdat_atl AL031899 16.9000 -63.4000 HU 130 4 14 289
1899215N12329 1899 21 NA CS NOT_NAMED 1899-08-08 03:00:00 TS 17.1348 -64.1002 main 201 123 P_____________ AL031899 17.1348 -64.1002 HU 127 4 14 290
1899215N12329 1899 21 NA CS NOT_NAMED 1899-08-08 06:00:00 TS 17.4000 -64.8000 125 hurdat_atl main 123 46 O_____________ hurdat_atl AL031899 17.4000 -64.8000 HU 125 4 15 292
1899215N12329 1899 21 NA CS NOT_NAMED 1899-08-08 09:00:00 TS 17.6925 -65.5225 main 46 0 P_____________ AL031899 17.6925 -65.5225 HU 122 4 15 294
1899215N12329 1899 21 NA NA NOT_NAMED 1899-08-08 12:00:00 TS 18.0000 -66.2000 120 940 hurdat_atl main 0 0 O_____________ hurdat_atl AL031899 18.0000 -66.2000 HU 120 940 4 14 297
1899215N12329 1899 21 NA NA NOT_NAMED 1899-08-08 15:00:00 TS 18.3223 -66.7950 main 0 0 P_____________ AL031899 18.3223 -66.7950 HU 112 3 12 300
1899215N12329 1899 21 NA NA NOT_NAMED 1899-08-08 18:00:00 TS 18.6000 -67.3000 105 hurdat_atl main 22 22 O_____________ hurdat_atl AL031899 18.6000 -67.3000 HU 105 3 10 297
1899215N12329 1899 21 NA NA NOT_NAMED 1899-08-08 21:00:00 TS 18.7647 -67.7229 main 61 38 P_____________ AL031899 18.7647 -67.7229 HU 105 3 8 292
1899215N12329 1899 21 NA NA NOT_NAMED 1899-08-09 00:00:00 TS 18.9000 -68.1000 105 hurdat_atl main 39 30 O_____________ hurdat_atl AL031899 18.9000 -68.1000 HU 105 3 8 294
1899215N12329 1899 21 NA NA NOT_NAMED 1899-08-09 03:00:00 TS 19.0924 -68.4926 main 35 30 P_____________ AL031899 19.0924 -68.4926 HU 105 3 9 298
1899215N12329 1899 21 NA NA NOT_NAMED 1899-08-09 06:00:00 TS 19.3000 -68.9000 105 hurdat_atl main 33 15 O_____________ hurdat_atl AL031899 19.3000 -68.9000 HU 105 3 9 297
1899215N12329 1899 21 NA NA NOT_NAMED 1899-08-09 09:00:00 TS 19.5000 -69.3501 main 24 23 P_____________ AL031899 19.5000 -69.3501 HU 105 3 9 295
1899215N12329 1899 21 NA NA NOT_NAMED 1899-08-09 12:00:00 TS 19.7000 -69.8000 105 hurdat_atl main 23 15 O_____________ hurdat_atl AL031899 19.7000 -69.8000 HU 105 3 9 297
1899215N12329 1899 21 NA NA NOT_NAMED 1899-08-09 15:00:00 TS 19.9074 -70.2076 main 30 24 P_____________ AL031899 19.9074 -70.2076 HU 105 3 9 298
1899215N12329 1899 21 NA NA NOT_NAMED 1899-08-09 18:00:00 TS 20.1000 -70.6000 105 hurdat_atl main 33 33 O_____________ hurdat_atl AL031899 20.1000 -70.6000 HU 105 3 8 295
1899215N12329 1899 21 NA NA NOT_NAMED 1899-08-09 21:00:00 TS 20.2574 -71.0001 main 55 55 P_____________ AL031899 20.2574 -71.0001 HU 105 3 8 292
1899215N12329 1899 21 NA NA NOT_NAMED 1899-08-10 00:00:00 TS 20.4000 -71.4000 105 hurdat_atl main 67 67 O_____________ hurdat_atl AL031899 20.4000 -71.4000 HU 105 3 8 291
1899215N12329 1899 21 NA NA NOT_NAMED 1899-08-10 03:00:00 TS 20.5499 -71.8001 main 78 78 P_____________ AL031899 20.5499 -71.8001 HU 105 3 8 292
1899215N12329 1899 21 NA NA NOT_NAMED 1899-08-10 06:00:00 TS 20.7000 -72.2000 105 hurdat_atl main 98 56 O_____________ hurdat_atl AL031899 20.7000 -72.2000 HU 105 3 8 291
1899215N12329 1899 21 NA NA NOT_NAMED 1899-08-10 09:00:00 TS 20.8425 -72.6076 main 56 10 P_____________ AL031899 20.8425 -72.6076 HU 105 3 8 292
1899215N12329 1899 21 NA NA NOT_NAMED 1899-08-10 12:00:00 TS 21.0000 -73.0000 105 hurdat_atl main 10 0 O_____________ hurdat_atl AL031899 21.0000 -73.0000 HU 105 3 8 296
1899215N12329 1899 21 NA NA NOT_NAMED 1899-08-10 15:00:00 TS 21.1773 -73.3502 main 11 11 P_____________ AL031899 21.1773 -73.3502 HU 105 3 8 302
1899215N12329 1899 21 NA NA NOT_NAMED 1899-08-10 18:00:00 TS 21.4000 -73.7000 105 hurdat_atl main 33 33 O_____________ hurdat_atl AL031899 21.4000 -73.7000 HU 105 3 9 307
1899215N12329 1899 21 NA NA NOT_NAMED 1899-08-10 21:00:00 TS 21.6925 -74.0924 main 78 78 P_____________ AL031899 21.6925 -74.0924 HU 105 3 10 309
1899215N12329 1899 21 NA NA NOT_NAMED 1899-08-11 00:00:00 TS 22.0000 -74.5000 105 hurdat_atl main 130 130 O_____________ hurdat_atl AL031899 22.0000 -74.5000 HU 105 3 9 307
1899215N12329 1899 21 NA NA NOT_NAMED 1899-08-11 03:00:00 TS 22.2575 -74.9077 main 162 158 P_____________ AL031899 22.2575 -74.9077 HU 105 3 9 304
1899215N12329 1899 21 NA NA NOT_NAMED 1899-08-11 06:00:00 TS 22.5000 -75.3000 105 hurdat_atl main 170 167 O_____________ hurdat_atl AL031899 22.5000 -75.3000 HU 105 3 9 305
1899215N12329 1899 21 NA NA NOT_NAMED 1899-08-11 09:00:00 TS 22.7575 -75.6725 main 186 181 P_____________ AL031899 22.7575 -75.6725 HU 105 3 8 308
1899215N12329 1899 21 NA NA NOT_NAMED 1899-08-11 12:00:00 TS 23.0000 -76.0000 105 hurdat_atl main 184 178 O_____________ hurdat_atl AL031899 23.0000 -76.0000 HU 105 3 7 310
1899215N12329 1899 21 NA NA NOT_NAMED 1899-08-11 15:00:00 TS 23.2074 -76.2652 main 186 173 P_____________ AL031899 23.2074 -76.2652 HU 105 3 6 311
1899215N12329 1899 21 NA NA NOT_NAMED 1899-08-11 18:00:00 TS 23.4000 -76.5000 105 hurdat_atl main 173 142 O_____________ hurdat_atl AL031899 23.4000 -76.5000 HU 105 3 6 311
1899215N12329 1899 21 NA NA NOT_NAMED 1899-08-11 21:00:00 TS 23.6000 -76.7575 main 135 105 P_____________ AL031899 23.6000 -76.7575 HU 105 3 6 311
1899215N12329 1899 21 NA NA NOT_NAMED 1899-08-12 00:00:00 TS 23.8000 -77.0000 105 hurdat_atl main 105 75 O_____________ hurdat_atl AL031899 23.8000 -77.0000 HU 105 3 6 314
1899215N12329 1899 21 NA NA NOT_NAMED 1899-08-12 03:00:00 TS 24.0075 -77.2150 main 75 45 P_____________ AL031899 24.0075 -77.2150 HU 105 3 5 318
1899215N12329 1899 21 NA NA NOT_NAMED 1899-08-12 06:00:00 TS 24.2000 -77.4000 105 hurdat_atl main 45 30 O_____________ hurdat_atl AL031899 24.2000 -77.4000 HU 105 3 5 316
1899215N12329 1899 21 NA NA NOT_NAMED 1899-08-12 09:00:00 TS 24.3350 -77.5577 main 24 0 P_____________ AL031899 24.3350 -77.5577 HU 105 3 4 318
1899215N12329 1899 21 NA NA NOT_NAMED 1899-08-12 12:00:00 TS 24.5000 -77.7000 105 hurdat_atl main 0 0 O_____________ hurdat_atl AL031899 24.5000 -77.7000 HU 105 3 5 329
1899215N12329 1899 21 NA NA NOT_NAMED 1899-08-12 15:00:00 TS 24.7850 -77.8574 main 0 0 P_____________ AL031899 24.7850 -77.8574 HU 105 3 7 336
1899215N12329 1899 21 NA NA NOT_NAMED 1899-08-12 18:00:00 TS 25.1000 -78.0000 105 hurdat_atl main 0 0 O_____________ hurdat_atl AL031899 25.1000 -78.0000 HU 105 3 6 338
1899215N12329 1899 21 NA NA NOT_NAMED 1899-08-12 21:00:00 TS 25.3500 -78.1076 main 22 22 P_____________ AL031899 25.3500 -78.1076 HU 105 3 5 340
1899215N12329 1899 21 NA NA NOT_NAMED 1899-08-13 00:00:00 TS 25.6000 -78.2000 105 hurdat_atl main 56 56 O_____________ hurdat_atl AL031899 25.6000 -78.2000 HU 105 3 6 342
1899215N12329 1899 21 NA NA NOT_NAMED 1899-08-13 03:00:00 TS 25.8775 -78.3001 main 91 91 P_____________ AL031899 25.8775 -78.3001 HU 105 3 6 343
1899215N12329 1899 21 NA NA NOT_NAMED 1899-08-13 06:00:00 TS 26.2000 -78.4000 105 hurdat_atl main 126 126 O_____________ hurdat_atl AL031899 26.2000 -78.4000 HU 105 3 7 346
1899215N12329 1899 21 NA NA NOT_NAMED 1899-08-13 09:00:00 TS 26.6000 -78.5000 main 150 138 P_____________ AL031899 26.6000 -78.5000 HU 105 3 8 347
1899215N12329 1899 21 NA NA NOT_NAMED 1899-08-13 12:00:00 TS 27.0000 -78.6000 105 hurdat_atl main 140 136 O_____________ hurdat_atl AL031899 27.0000 -78.6000 HU 105 3 7 346
1899215N12329 1899 21 NA NA NOT_NAMED 1899-08-13 15:00:00 TS 27.3075 -78.7001 main 140 139 P_____________ AL031899 27.3075 -78.7001 HU 105 3 6 344
1899215N12329 1899 21 NA NA NOT_NAMED 1899-08-13 18:00:00 TS 27.6000 -78.8000 105 hurdat_atl main 144 144 O_____________ hurdat_atl AL031899 27.6000 -78.8000 HU 105 3 7 344
1899215N12329 1899 21 NA NA NOT_NAMED 1899-08-13 21:00:00 TS 27.9425 -78.9075 main 148 148 P_____________ AL031899 27.9425 -78.9075 HU 105 3 7 346
1899215N12329 1899 21 NA NA NOT_NAMED 1899-08-14 00:00:00 TS 28.3000 -79.0000 105 hurdat_atl main 148 136 O_____________ hurdat_atl AL031899 28.3000 -79.0000 HU 105 3 7 348
1899215N12329 1899 21 NA NA NOT_NAMED 1899-08-14 03:00:00 TS 28.6500 -79.0725 main 138 137 P_____________ AL031899 28.6500 -79.0725 HU 105 3 7 353
1899215N12329 1899 21 NA NA NOT_NAMED 1899-08-14 06:00:00 TS 29.0000 -79.1000 105 hurdat_atl main 147 147 O_____________ hurdat_atl AL031899 29.0000 -79.1000 HU 105 3 7 2
1899215N12329 1899 21 NA NA NOT_NAMED 1899-08-14 09:00:00 TS 29.3575 -79.0651 main 169 169 P_____________ AL031899 29.3575 -79.0651 HU 105 3 7 7
1899215N12329 1899 21 NA NA NOT_NAMED 1899-08-14 12:00:00 TS 29.7000 -79.0000 105 hurdat_atl main 195 195 O_____________ hurdat_atl AL031899 29.7000 -79.0000 HU 105 3 7 9
1899215N12329 1899 21 NA NA NOT_NAMED 1899-08-14 15:00:00 TS 30.0075 -78.9574 main 209 209 P_____________ AL031899 30.0075 -78.9574 HU 105 3 6 8
1899215N12329 1899 21 NA NA NOT_NAMED 1899-08-14 18:00:00 TS 30.3000 -78.9000 105 hurdat_atl main 234 234 O_____________ hurdat_atl AL031899 30.3000 -78.9000 HU 105 3 6 12
1899215N12329 1899 21 NA NA NOT_NAMED 1899-08-14 21:00:00 TS 30.6150 -78.8150 main 246 225 P_____________ AL031899 30.6150 -78.8150 HU 105 3 6 16
1899215N12329 1899 21 NA NA NOT_NAMED 1899-08-15 00:00:00 TS 30.9000 -78.7000 105 hurdat_atl main 225 213 O_____________ hurdat_atl AL031899 30.9000 -78.7000 HU 105 3 5 23
1899215N12329 1899 21 NA NA NOT_NAMED 1899-08-15 03:00:00 TS 31.1150 -78.5649 main 213 209 P_____________ AL031899 31.1150 -78.5649 HU 105 3 5 33
1899215N12329 1899 21 NA NA NOT_NAMED 1899-08-15 06:00:00 TS 31.3000 -78.4000 105 hurdat_atl main 209 201 O_____________ hurdat_atl AL031899 31.3000 -78.4000 HU 105 3 5 38
1899215N12329 1899 21 NA NA NOT_NAMED 1899-08-15 09:00:00 TS 31.4925 -78.2149 main 201 189 P_____________ AL031899 31.4925 -78.2149 HU 105 3 5 40
1899215N12329 1899 21 NA NA NOT_NAMED 1899-08-15 12:00:00 TS 31.7000 -78.0000 105 hurdat_atl main 195 186 O_____________ hurdat_atl AL031899 31.7000 -78.0000 HU 105 3 6 40
1899215N12329 1899 21 NA NA NOT_NAMED 1899-08-15 15:00:00 TS 31.9499 -77.7650 main 193 186 P_____________ AL031899 31.9499 -77.7650 HU 105 3 7 40
1899215N12329 1899 21 NA NA NOT_NAMED 1899-08-15 18:00:00 TS 32.2000 -77.5000 105 hurdat_atl main 194 179 O_____________ hurdat_atl AL031899 32.2000 -77.5000 HU 105 3 7 45
1899215N12329 1899 21 NA NA NOT_NAMED 1899-08-15 21:00:00 TS 32.4224 -77.2150 main 183 172 P_____________ AL031899 32.4224 -77.2150 HU 105 3 6 52
1899215N12329 1899 21 NA NA NOT_NAMED 1899-08-16 00:00:00 TS 32.6000 -76.9000 105 hurdat_atl main 177 174 O_____________ hurdat_atl AL031899 32.6000 -76.9000 HU 105 3 6 62
1899215N12329 1899 21 NA NA NOT_NAMED 1899-08-16 03:00:00 TS 32.7150 -76.5573 main 186 186 P_____________ AL031899 32.7150 -76.5573 HU 105 3 6 71
1899215N12329 1899 21 NA NA NOT_NAMED 1899-08-16 06:00:00 TS 32.8000 -76.2000 105 hurdat_atl main 207 205 O_____________ hurdat_atl AL031899 32.8000 -76.2000 HU 105 3 6 74
1899215N12329 1899 21 NA NA NOT_NAMED 1899-08-16 09:00:00 TS 32.8925 -75.8349 main 210 206 P_____________ AL031899 32.8925 -75.8349 HU 105 3 6 71
1899215N12329 1899 21 NA NA NOT_NAMED 1899-08-16 12:00:00 TS 33.0000 -75.5000 105 hurdat_atl main 210 205 O_____________ hurdat_atl AL031899 33.0000 -75.5000 HU 105 3 6 65
1899215N12329 1899 21 NA NA NOT_NAMED 1899-08-16 15:00:00 TS 33.1349 -75.2274 main 214 202 P_____________ AL031899 33.1349 -75.2274 HU 105 3 5 54
1899215N12329 1899 21 NA NA NOT_NAMED 1899-08-16 18:00:00 TS 33.3000 -75.0000 105 hurdat_atl main 208 205 O_____________ hurdat_atl AL031899 33.3000 -75.0000 HU 105 3 5 46
1899215N12329 1899 21 NA NA NOT_NAMED 1899-08-16 21:00:00 TS 33.4925 -74.7775 main 205 205 P_____________ AL031899 33.4925 -74.7775 HU 105 3 5 40
1899215N12329 1899 21 NA NA NOT_NAMED 1899-08-17 00:00:00 TS 33.7000 -74.6000 105 hurdat_atl main 205 198 O_____________ hurdat_atl AL031899 33.7000 -74.6000 HU 105 3 5 33
1899215N12329 1899 21 NA NA NOT_NAMED 1899-08-17 03:00:00 TS 33.9000 -74.4625 main 198 195 P_____________ AL031899 33.9000 -74.4625 HU 105 3 4 23
1899215N12329 1899 21 NA NA NOT_NAMED 1899-08-17 06:00:00 TS 34.1000 -74.4000 105 hurdat_atl main 195 185 O_____________ hurdat_atl AL031899 34.1000 -74.4000 HU 105 3 4 8
1899215N12329 1899 21 NA NA NOT_NAMED 1899-08-17 09:00:00 TS 34.3074 -74.3975 main 185 164 P_____________ AL031899 34.3074 -74.3975 HU 105 3 4 349
1899215N12329 1899 21 NA NA NOT_NAMED 1899-08-17 12:00:00 TS 34.5000 -74.5000 105 hurdat_atl main 164 143 O_____________ hurdat_atl AL031899 34.5000 -74.5000 HU 105 3 4 324
1899215N12329 1899 21 NA NA NOT_NAMED 1899-08-17 15:00:00 TS 34.6575 -74.7050 main 135 109 P_____________ AL031899 34.6575 -74.7050 HU 105 3 5 306
1899215N12329 1899 21 NA NA NOT_NAMED 1899-08-17 18:00:00 TS 34.8000 -75.0000 105 hurdat_atl main 109 86 O_____________ hurdat_atl AL031899 34.8000 -75.0000 HU 105 3 6 295
1899215N12329 1899 21 NA NA NOT_NAMED 1899-08-17 21:00:00 TS 34.9096 -75.3517 main 81 49 P_____________ AL031899 34.9096 -75.3517 HU 105 3 6 298
1899215N12329 1899 21 NA NA NOT_NAMED 1899-08-18 00:00:00 TS 35.1000 -75.7000 105 hurdat_atl main 49 35 O_____________ hurdat_atl AL031899 35.1000 -75.7000 HU 105 3 7 308
1899215N12329 1899 21 NA NA NOT_NAMED 1899-08-18 01:00:00 TS 35.2000 -75.8000 105 hurdat_atl main 35 14 O_____________ hurdat_atl AL031899 35.2000 -75.8000 L HU 105 3 7 327
1899215N12329 1899 21 NA NA NOT_NAMED 1899-08-18 03:00:00 TS 35.3999 -75.9423 main 14 0 P_____________ AL031899 35.3999 -75.9423 HU 98 3 6 342
1899215N12329 1899 21 NA NA NOT_NAMED 1899-08-18 06:00:00 TS 35.7000 -76.0000 90 hurdat_atl main 0 0 O_____________ hurdat_atl AL031899 35.7000 -76.0000 HU 90 2 6 4
1899215N12329 1899 21 NA NA NOT_NAMED 1899-08-18 09:00:00 TS 36.0367 -75.8877 main 14 0 P_____________ AL031899 36.0367 -75.8877 HU 85 2 6 22
1899215N12329 1899 21 NA NA NOT_NAMED 1899-08-18 12:00:00 TS 36.3000 -75.7000 80 hurdat_atl main 8 8 O_____________ hurdat_atl AL031899 36.3000 -75.7000 HU 80 1 4 34
1899215N12329 1899 21 NA NA NOT_NAMED 1899-08-18 15:00:00 TS 36.3950 -75.5923 main 17 17 P_____________ AL031899 36.3950 -75.5923 HU 77 1 2 58
1899215N12329 1899 21 NA NA NOT_NAMED 1899-08-18 18:00:00 TS 36.4000 -75.5000 75 hurdat_atl main 26 26 O_____________ hurdat_atl AL031899 36.4000 -75.5000 HU 75 1 1 85
1899215N12329 1899 21 NA NA NOT_NAMED 1899-08-18 21:00:00 TS 36.4075 -75.4075 main 34 34 P_____________ AL031899 36.4075 -75.4075 HU 75 1 2 90
1899215N12329 1899 21 NA NA NOT_NAMED 1899-08-19 00:00:00 TS 36.4000 -75.3000 75 hurdat_atl main 42 42 O_____________ hurdat_atl AL031899 36.4000 -75.3000 HU 75 1 2 94
1899215N12329 1899 21 NA NA NOT_NAMED 1899-08-19 03:00:00 TS 36.3925 -75.1575 main 49 49 P_____________ AL031899 36.3925 -75.1575 HU 72 1 2 90
1899215N12329 1899 21 NA NA NOT_NAMED 1899-08-19 06:00:00 TS 36.4000 -75.0000 70 hurdat_atl main 66 66 O_____________ hurdat_atl AL031899 36.4000 -75.0000 HU 70 1 2 85
1899215N12329 1899 21 NA NA NOT_NAMED 1899-08-19 09:00:00 TS 36.4123 -74.8796 main 74 74 P_____________ AL031899 36.4123 -74.8796 HU 70 1 3 67
1899215N12329 1899 21 NA NA NOT_NAMED 1899-08-19 12:00:00 TS 36.5000 -74.7000 70 hurdat_atl main 95 95 O_____________ hurdat_atl AL031899 36.5000 -74.7000 HU 70 1 5 52
1899215N12329 1899 21 NA NA NOT_NAMED 1899-08-19 15:00:00 TS 36.7048 -74.4097 main 128 128 P_____________ AL031899 36.7048 -74.4097 HU 70 1 8 48
1899215N12329 1899 21 NA NA NOT_NAMED 1899-08-19 18:00:00 TS 37.0000 -74.0000 70 hurdat_atl main 159 159 O_____________ hurdat_atl AL031899 37.0000 -74.0000 HU 70 1 10 50
1899215N12329 1899 21 NA NA NOT_NAMED 1899-08-19 21:00:00 TS 37.3427 -73.4729 main 179 179 P_____________ AL031899 37.3427 -73.4729 HU 70 1 11 51
1899215N12329 1899 21 NA NA NOT_NAMED 1899-08-20 00:00:00 TS 37.7000 -72.9000 70 hurdat_atl main 203 203 O_____________ hurdat_atl AL031899 37.7000 -72.9000 HU 70 1 11 51
1899215N12329 1899 21 NA NA NOT_NAMED 1899-08-20 03:00:00 TS 38.0145 -72.4068 main 234 231 P_____________ AL031899 38.0145 -72.4068 HU 70 1 10 53
1899215N12329 1899 21 NA NA NOT_NAMED 1899-08-20 06:00:00 TS 38.3000 -71.9000 70 hurdat_atl main 246 246 O_____________ hurdat_atl AL031899 38.3000 -71.9000 HU 70 1 10 57
1899215N12329 1899 21 NA NA NOT_NAMED 1899-08-20 09:00:00 TS 38.5568 -71.3517 main 265 265 P_____________ AL031899 38.5568 -71.3517 HU 70 1 11 62
1899215N12329 1899 21 NA NA NOT_NAMED 1899-08-20 12:00:00 TS 38.8000 -70.7000 70 hurdat_atl main 275 273 O_____________ hurdat_atl AL031899 38.8000 -70.7000 HU 70 1 13 65
1899215N12329 1899 21 NA NA NOT_NAMED 1899-08-20 15:00:00 TS 39.0801 -69.8884 main 275 272 P_____________ AL031899 39.0801 -69.8884 HU 70 1 14 69
1899215N12329 1899 21 NA NA NOT_NAMED 1899-08-20 18:00:00 TS 39.3000 -69.0000 70 hurdat_atl main 280 280 O_____________ hurdat_atl AL031899 39.3000 -69.0000 HU 70 1 14 77
1899215N12329 1899 21 NA NA NOT_NAMED 1899-08-20 21:00:00 TS 39.3790 -68.1638 main 297 297 P_____________ AL031899 39.3790 -68.1638 HU 70 1 13 86
1899215N12329 1899 21 NA NA NOT_NAMED 1899-08-21 00:00:00 TS 39.4000 -67.3000 70 hurdat_atl main 342 342 O_____________ hurdat_atl AL031899 39.4000 -67.3000 HU 70 1 14 87
1899215N12329 1899 21 NA NA NOT_NAMED 1899-08-21 03:00:00 TS 39.4421 -66.3646 main 396 396 P_____________ AL031899 39.4421 -66.3646 HU 70 1 15 86
1899215N12329 1899 21 NA NA NOT_NAMED 1899-08-21 06:00:00 TS 39.5000 -65.4000 70 hurdat_atl main 445 434 O_____________ hurdat_atl AL031899 39.5000 -65.4000 HU 70 1 15 83
1899215N12329 1899 21 NA NA NOT_NAMED 1899-08-21 09:00:00 TS 39.6211 -64.4738 main 438 432 P_____________ AL031899 39.6211 -64.4738 HU 70 1 15 82
1899215N12329 1899 21 NA NA NOT_NAMED 1899-08-21 12:00:00 TS 39.7000 -63.5000 70 hurdat_atl main 448 448 O_____________ hurdat_atl AL031899 39.7000 -63.5000 HU 70 1 16 90
1899215N12329 1899 21 NA NA NOT_NAMED 1899-08-21 15:00:00 TS 39.6291 -62.4364 main 495 495 P_____________ AL031899 39.6291 -62.4364 HU 67 1 17 97
1899215N12329 1899 21 NA NA NOT_NAMED 1899-08-21 18:00:00 TS 39.5000 -61.3000 65 hurdat_atl main 555 555 O_____________ hurdat_atl AL031899 39.5000 -61.3000 HU 65 1 18 97
1899215N12329 1899 21 NA NA NOT_NAMED 1899-08-21 21:00:00 TS 39.3992 -60.1152 main 625 625 P_____________ AL031899 39.3992 -60.1152 HU 62 0 19 96
1899215N12329 1899 21 NA NA NOT_NAMED 1899-08-22 00:00:00 ET 39.3000 -58.9000 60 hurdat_atl main 679 679 O_____________ hurdat_atl AL031899 39.3000 -58.9000 EX 60 -4 19 96
1899215N12329 1899 21 NA NA NOT_NAMED 1899-08-22 03:00:00 ET 39.2142 -57.6860 main 723 723 P_____________ AL031899 39.2142 -57.6860 EX 57 -4 19 96
1899215N12329 1899 21 NA NA NOT_NAMED 1899-08-22 06:00:00 ET 39.1000 -56.5000 55 hurdat_atl main 776 776 O_____________ hurdat_atl AL031899 39.1000 -56.5000 EX 55 -4 19 99
1899215N12329 1899 21 NA NA NOT_NAMED 1899-08-22 09:00:00 ET 38.9150 -55.3246 main 847 847 P_____________ AL031899 38.9150 -55.3246 EX 52 -4 18 103
1899215N12329 1899 21 NA NA NOT_NAMED 1899-08-22 12:00:00 ET 38.7000 -54.3000 50 hurdat_atl main 880 879 O_____________ hurdat_atl AL031899 38.7000 -54.3000 EX 50 -4 15 106
1899215N12329 1899 21 NA NA NOT_NAMED 1899-08-22 15:00:00 ET 38.4989 -53.5032 main 900 900 P_____________ AL031899 38.4989 -53.5032 EX 50 -4 12 110
1899215N12329 1899 21 NA NA NOT_NAMED 1899-08-22 18:00:00 ET 38.3000 -52.9000 50 hurdat_atl main 923 923 O_____________ hurdat_atl AL031899 38.3000 -52.9000 EX 50 -4 9 115
1899215N12329 1899 21 NA NA NOT_NAMED 1899-08-22 21:00:00 ET 38.1141 -52.4285 main 947 947 P_____________ AL031899 38.1141 -52.4285 EX 50 -4 8 119
1899215N12329 1899 21 NA NA NOT_NAMED 1899-08-23 00:00:00 ET 37.9000 -52.0000 50 hurdat_atl main 972 972 O_____________ hurdat_atl AL031899 37.9000 -52.0000 EX 50 -4 9 123
1899215N12329 1899 21 NA NA NOT_NAMED 1899-08-23 03:00:00 ET 37.6151 -51.4498 main 1011 1011 P_____________ AL031899 37.6151 -51.4498 EX 47 -4 11 125
1899215N12329 1899 21 NA NA NOT_NAMED 1899-08-23 06:00:00 ET 37.3000 -50.9000 45 hurdat_atl main 1051 1051 O_____________ hurdat_atl AL031899 37.3000 -50.9000 EX 45 -4 10 127
1899215N12329 1899 21 NA NA NOT_NAMED 1899-08-23 09:00:00 ET 37.0071 -50.4433 main 1092 1092 P_____________ AL031899 37.0071 -50.4433 EX 45 -4 9 130
1899215N12329 1899 21 NA NA NOT_NAMED 1899-08-23 12:00:00 ET 36.7000 -50.0000 45 hurdat_atl main 1132 1132 O_____________ hurdat_atl AL031899 36.7000 -50.0000 EX 45 -4 10 131
1899215N12329 1899 21 NA NA NOT_NAMED 1899-08-23 15:00:00 ET 36.3501 -49.4924 main 1175 1175 P_____________ AL031899 36.3501 -49.4924 EX 45 -4 11 131
1899215N12329 1899 21 NA NA NOT_NAMED 1899-08-23 18:00:00 ET 36.0000 -49.0000 45 hurdat_atl main 1229 1229 O_____________ hurdat_atl AL031899 36.0000 -49.0000 EX 45 -4 10 132
1899215N12329 1899 21 NA NA NOT_NAMED 1899-08-23 21:00:00 ET 35.6995 -48.6009 main 1271 1271 P_____________ AL031899 35.6995 -48.6009 EX 45 -4 9 133
1899215N12329 1899 21 NA NA NOT_NAMED 1899-08-24 00:00:00 ET 35.4000 -48.2000 45 hurdat_atl main 1313 1313 O_____________ hurdat_atl AL031899 35.4000 -48.2000 EX 45 -4 10 133
1899215N12329 1899 21 NA NA NOT_NAMED 1899-08-24 03:00:00 ET 35.0348 -47.7298 main 1369 1369 P_____________ AL031899 35.0348 -47.7298 EX 42 -4 11 131
1899215N12329 1899 21 NA NA NOT_NAMED 1899-08-24 06:00:00 ET 34.7000 -47.2000 40 hurdat_atl main 1415 1415 O_____________ hurdat_atl AL031899 34.7000 -47.2000 EX 40 -4 11 122
1899215N12329 1899 21 NA NA NOT_NAMED 1899-08-24 09:00:00 ET 34.4551 -46.6001 main 1455 1455 P_____________ AL031899 34.4551 -46.6001 EX 40 -4 11 112
1899215N12329 1899 21 NA NA NOT_NAMED 1899-08-24 12:00:00 ET 34.3000 -46.0000 40 hurdat_atl main 1495 1495 O_____________ hurdat_atl AL031899 34.3000 -46.0000 EX 40 -4 10 105
1899215N12329 1899 21 NA NA NOT_NAMED 1899-08-24 15:00:00 ET 34.2122 -45.4778 main 1523 1523 P_____________ AL031899 34.2122 -45.4778 EX 40 -4 8 97
1899215N12329 1899 21 NA NA NOT_NAMED 1899-08-24 18:00:00 ET 34.2000 -45.0000 40 hurdat_atl main 1541 1541 O_____________ hurdat_atl AL031899 34.2000 -45.0000 EX 40 -4 8 89
1899215N12329 1899 21 NA NA NOT_NAMED 1899-08-24 21:00:00 ET 34.2198 -44.5350 main 1560 1558 P_____________ AL031899 34.2198 -44.5350 EX 40 -4 7 82
1899215N12329 1899 21 NA NA NOT_NAMED 1899-08-25 00:00:00 ET 34.3000 -44.1000 40 hurdat_atl main 1566 1566 O_____________ hurdat_atl AL031899 34.3000 -44.1000 EX 40 -4 7 76
1899215N12329 1899 21 NA NA NOT_NAMED 1899-08-25 03:00:00 ET 34.4051 -43.6550 main 1573 1571 P_____________ AL031899 34.4051 -43.6550 EX 40 -4 7 66
1899215N12329 1899 21 NA NA NOT_NAMED 1899-08-25 06:00:00 ET 34.6000 -43.3000 40 hurdat_atl main 1571 1550 O_____________ hurdat_atl AL031899 34.6000 -43.3000 EX 40 -4 7 41
1899215N12329 1899 21 NA NA NOT_NAMED 1899-08-25 09:00:00 ET 34.9498 -43.0901 main 1550 1516 P_____________ AL031899 34.9498 -43.0901 EX 40 -4 7 19
1899215N12329 1899 21 NA NA NOT_NAMED 1899-08-25 12:00:00 ET 35.3000 -43.0000 40 hurdat_atl main 1516 1497 O_____________ hurdat_atl AL031899 35.3000 -43.0000 EX 40 -4 5 12
1899215N12329 1899 21 NA NA NOT_NAMED 1899-08-25 15:00:00 ET 35.4724 -42.9624 main 1497 1488 P_____________ AL031899 35.4724 -42.9624 EX 40 -4 3 0
1899215N12329 1899 21 NA NA NOT_NAMED 1899-08-25 18:00:00 ET 35.6000 -43.0000 40 hurdat_atl main 1488 1464 O_____________ hurdat_atl AL031899 35.6000 -43.0000 EX 40 -4 3 342
1899215N12329 1899 21 NA NA NOT_NAMED 1899-08-25 21:00:00 ET 35.8000 -43.0924 main 1464 1441 P_____________ AL031899 35.8000 -43.0924 EX 40 -4 4 338
1899215N12329 1899 21 NA NA NOT_NAMED 1899-08-26 00:00:00 TS 36.0000 -43.2000 40 hurdat_atl main 1441 1422 O_____________ hurdat_atl AL031899 36.0000 -43.2000 TS 40 0 4 341
1899215N12329 1899 21 NA NA NOT_NAMED 1899-08-26 03:00:00 TS 36.1650 -43.2501 main 1417 1407 P_____________ AL031899 36.1650 -43.2501 TS 40 0 3 346
1899215N12329 1899 21 NA NA NOT_NAMED 1899-08-26 06:00:00 TS 36.3000 -43.3000 40 hurdat_atl main 1407 1393 O_____________ hurdat_atl AL031899 36.3000 -43.3000 TS 40 0 3 335
1899215N12329 1899 21 NA NA NOT_NAMED 1899-08-26 09:00:00 TS 36.4000 -43.3925 main 1393 1379 P_____________ AL031899 36.4000 -43.3925 TS 40 0 3 320
1899215N12329 1899 21 NA NA NOT_NAMED 1899-08-26 12:00:00 TS 36.5000 -43.5000 40 hurdat_atl main 1379 1365 O_____________ hurdat_atl AL031899 36.5000 -43.5000 TS 40 0 3 325
1899215N12329 1899 21 NA NA NOT_NAMED 1899-08-26 15:00:00 TS 36.6350 -43.5926 main 1365 1341 P_____________ AL031899 36.6350 -43.5926 TS 40 0 3 333
1899215N12329 1899 21 NA NA NOT_NAMED 1899-08-26 18:00:00 TS 36.8000 -43.7000 40 hurdat_atl main 1341 1318 O_____________ hurdat_atl AL031899 36.8000 -43.7000 TS 40 0 4 331
1899215N12329 1899 21 NA NA NOT_NAMED 1899-08-26 21:00:00 TS 37.0000 -43.8499 main 1318 1289 P_____________ AL031899 37.0000 -43.8499 TS 40 0 5 329
1899215N12329 1899 21 NA NA NOT_NAMED 1899-08-27 00:00:00 TS 37.2000 -44.0000 40 hurdat_atl main 1289 1266 O_____________ hurdat_atl AL031899 37.2000 -44.0000 TS 40 0 4 332
1899215N12329 1899 21 NA NA NOT_NAMED 1899-08-27 03:00:00 TS 37.3649 -44.1001 main 1266 1252 P_____________ AL031899 37.3649 -44.1001 TS 40 0 3 333
1899215N12329 1899 21 NA NA NOT_NAMED 1899-08-27 06:00:00 TS 37.5000 -44.2000 40 hurdat_atl main 1252 1238 O_____________ hurdat_atl AL031899 37.5000 -44.2000 TS 40 0 3 318
1899215N12329 1899 21 NA NA NOT_NAMED 1899-08-27 09:00:00 TS 37.5850 -44.3501 main 1233 1219 P_____________ AL031899 37.5850 -44.3501 TS 40 0 3 310
1899215N12329 1899 21 NA NA NOT_NAMED 1899-08-27 12:00:00 TS 37.7000 -44.5000 40 hurdat_atl main 1219 1195 O_____________ hurdat_atl AL031899 37.7000 -44.5000 TS 40 0 4 329
1899215N12329 1899 21 NA NA NOT_NAMED 1899-08-27 15:00:00 TS 37.9275 -44.6075 main 1195 1163 P_____________ AL031899 37.9275 -44.6075 TS 40 0 5 342
1899215N12329 1899 21 NA NA NOT_NAMED 1899-08-27 18:00:00 TS 38.2000 -44.7000 40 hurdat_atl main 1163 1139 O_____________ hurdat_atl AL031899 38.2000 -44.7000 TS 40 0 5 342
1899215N12329 1899 21 NA NA NOT_NAMED 1899-08-27 21:00:00 TS 38.4350 -44.8075 main 1139 1107 P_____________ AL031899 38.4350 -44.8075 TS 40 0 5 342
1899215N12329 1899 21 NA NA NOT_NAMED 1899-08-28 00:00:00 TS 38.7000 -44.9000 40 hurdat_atl main 1107 1075 O_____________ hurdat_atl AL031899 38.7000 -44.9000 TS 40 0 6 348
1899215N12329 1899 21 NA NA NOT_NAMED 1899-08-28 03:00:00 TS 39.0425 -44.9650 main 1075 1039 P_____________ AL031899 39.0425 -44.9650 TS 40 0 7 354
1899215N12329 1899 21 NA NA NOT_NAMED 1899-08-28 06:00:00 TS 39.4000 -45.0000 40 hurdat_atl main 1039 1012 O_____________ hurdat_atl AL031899 39.4000 -45.0000 TS 40 0 7 355
1899215N12329 1899 21 NA NA NOT_NAMED 1899-08-28 09:00:00 TS 39.7300 -45.0299 main 1012 986 P_____________ AL031899 39.7300 -45.0299 TS 40 0 6 0
1899215N12329 1899 21 NA NA NOT_NAMED 1899-08-28 12:00:00 TS 40.0000 -45.0000 40 hurdat_atl main 986 975 O_____________ hurdat_atl AL031899 40.0000 -45.0000 TS 40 0 5 13
1899215N12329 1899 21 NA NA NOT_NAMED 1899-08-28 15:00:00 TS 40.1724 -44.8949 main 975 972 P_____________ AL031899 40.1724 -44.8949 TS 40 0 4 37
1899215N12329 1899 21 NA NA NOT_NAMED 1899-08-28 18:00:00 TS 40.3000 -44.7000 40 hurdat_atl main 977 972 O_____________ hurdat_atl AL031899 40.3000 -44.7000 TS 40 0 5 50
1899215N12329 1899 21 NA NA NOT_NAMED 1899-08-28 21:00:00 TS 40.4726 -44.4228 main 978 978 P_____________ AL031899 40.4726 -44.4228 TS 40 0 5 57
1899215N12329 1899 21 NA NA NOT_NAMED 1899-08-29 00:00:00 TS 40.6000 -44.1000 40 hurdat_atl main 987 987 O_____________ hurdat_atl AL031899 40.6000 -44.1000 TS 40 0 5 72
1899215N12329 1899 21 NA NA NOT_NAMED 1899-08-29 03:00:00 TS 40.6300 -43.7923 main 1005 1005 P_____________ AL031899 40.6300 -43.7923 TS 40 0 5 90
1899215N12329 1899 21 NA NA NOT_NAMED 1899-08-29 06:00:00 TS 40.6000 -43.5000 40 hurdat_atl main 1023 1023 O_____________ hurdat_atl AL031899 40.6000 -43.5000 TS 40 0 4 101
1899215N12329 1899 21 NA NA NOT_NAMED 1899-08-29 09:00:00 TS 40.5500 -43.2274 main 1049 1049 P_____________ AL031899 40.5500 -43.2274 TS 40 0 4 105
1899215N12329 1899 21 NA NA NOT_NAMED 1899-08-29 12:00:00 TS 40.5000 -43.0000 40 hurdat_atl main 1061 1061 O_____________ hurdat_atl AL031899 40.5000 -43.0000 TS 40 0 3 101
1899215N12329 1899 21 NA NA NOT_NAMED 1899-08-29 15:00:00 TS 40.4924 -42.8426 main 1074 1074 P_____________ AL031899 40.4924 -42.8426 TS 40 0 2 90
1899215N12329 1899 21 NA NA NOT_NAMED 1899-08-29 18:00:00 TS 40.5000 -42.7000 40 hurdat_atl main 1080 1080 O_____________ hurdat_atl AL031899 40.5000 -42.7000 TS 40 0 3 88
1899215N12329 1899 21 NA NA NOT_NAMED 1899-08-29 21:00:00 TS 40.5000 -42.5075 main 1092 1092 P_____________ AL031899 40.5000 -42.5075 TS 40 0 3 90
1899215N12329 1899 21 NA NA NOT_NAMED 1899-08-30 00:00:00 TS 40.5000 -42.3000 40 hurdat_atl main 1105 1105 O_____________ hurdat_atl AL031899 40.5000 -42.3000 TS 40 0 3 87
1899215N12329 1899 21 NA NA NOT_NAMED 1899-08-30 03:00:00 TS 40.5150 -42.1001 main 1118 1118 P_____________ AL031899 40.5150 -42.1001 TS 40 0 3 90
1899215N12329 1899 21 NA NA NOT_NAMED 1899-08-30 06:00:00 TS 40.5000 -41.9000 40 hurdat_atl main 1130 1130 O_____________ hurdat_atl AL031899 40.5000 -41.9000 TS 40 0 3 109
1899215N12329 1899 21 NA NA NOT_NAMED 1899-08-30 09:00:00 TS 40.4075 -41.6923 main 1150 1150 P_____________ AL031899 40.4075 -41.6923 TS 40 0 4 123
1899215N12329 1899 21 NA NA NOT_NAMED 1899-08-30 12:00:00 TS 40.3000 -41.5000 40 hurdat_atl main 1170 1170 O_____________ hurdat_atl AL031899 40.3000 -41.5000 TS 40 0 3 122
1899215N12329 1899 21 NA NA NOT_NAMED 1899-08-30 15:00:00 TS 40.2424 -41.3426 main 1190 1190 P_____________ AL031899 40.2424 -41.3426 TS 40 0 2 114
1899215N12329 1899 21 NA NA NOT_NAMED 1899-08-30 18:00:00 TS 40.2000 -41.2000 40 hurdat_atl main 1196 1196 O_____________ hurdat_atl AL031899 40.2000 -41.2000 TS 40 0 2 113
1899215N12329 1899 21 NA NA NOT_NAMED 1899-08-30 21:00:00 TS 40.1499 -41.0575 main 1210 1210 P_____________ AL031899 40.1499 -41.0575 TS 40 0 2 114
1899215N12329 1899 21 NA NA NOT_NAMED 1899-08-31 00:00:00 TS 40.1000 -40.9000 40 hurdat_atl main 1223 1223 O_____________ hurdat_atl AL031899 40.1000 -40.9000 TS 40 0 3 112
1899215N12329 1899 21 NA NA NOT_NAMED 1899-08-31 03:00:00 TS 40.0425 -40.7150 main 1243 1243 P_____________ AL031899 40.0425 -40.7150 TS 40 0 3 108
1899215N12329 1899 21 NA NA NOT_NAMED 1899-08-31 06:00:00 TS 40.0000 -40.5000 40 hurdat_atl main 1256 1256 O_____________ hurdat_atl AL031899 40.0000 -40.5000 TS 40 0 3 97
1899215N12329 1899 21 NA NA NOT_NAMED 1899-08-31 09:00:00 TS 39.9999 -40.2727 main 1268 1268 P_____________ AL031899 39.9999 -40.2727 TS 40 0 4 90
1899215N12329 1899 21 NA NA NOT_NAMED 1899-08-31 12:00:00 TS 40.0000 -40.0000 40 hurdat_atl main 1288 1288 O_____________ hurdat_atl AL031899 40.0000 -40.0000 TS 40 0 5 96
1899215N12329 1899 21 NA NA NOT_NAMED 1899-08-31 15:00:00 TS 39.9501 -39.6573 main 1307 1307 P_____________ AL031899 39.9501 -39.6573 TS 40 0 5 101
1899215N12329 1899 21 NA NA NOT_NAMED 1899-08-31 18:00:00 TS 39.9000 -39.3000 40 hurdat_atl main 1341 1341 O_____________ hurdat_atl AL031899 39.9000 -39.3000 TS 40 0 5 97
1899215N12329 1899 21 NA NA NOT_NAMED 1899-08-31 21:00:00 TS 39.8922 -39.0076 main 1360 1360 P_____________ AL031899 39.8922 -39.0076 TS 40 0 5 90
1899215N12329 1899 21 NA NA NOT_NAMED 1899-09-01 00:00:00 TS 39.9000 -38.7000 40 hurdat_atl main 1380 1380 O_____________ hurdat_atl AL031899 39.9000 -38.7000 TS 40 0 5 90
1899215N12329 1899 21 NA NA NOT_NAMED 1899-09-01 03:00:00 TS 39.8924 -38.3223 main 1407 1407 P_____________ AL031899 39.8924 -38.3223 TS 40 0 6 90
1899215N12329 1899 21 NA NA NOT_NAMED 1899-09-01 06:00:00 TS 39.9000 -37.9000 40 hurdat_atl main 1434 1434 O_____________ hurdat_atl AL031899 39.9000 -37.9000 TS 40 0 6 84
1899215N12329 1899 21 NA NA NOT_NAMED 1899-09-01 09:00:00 TS 39.9570 -37.4879 main 1455 1455 P_____________ AL031899 39.9570 -37.4879 TS 40 0 7 82
1899215N12329 1899 21 NA NA NOT_NAMED 1899-09-01 12:00:00 TS 40.0000 -37.0000 40 hurdat_atl main 1489 1489 O_____________ hurdat_atl AL031899 40.0000 -37.0000 TS 40 0 9 89
1899215N12329 1899 21 NA NA NOT_NAMED 1899-09-01 15:00:00 TS 39.9729 -36.3573 main 1530 1530 P_____________ AL031899 39.9729 -36.3573 TS 40 0 10 96
1899215N12329 1899 21 NA NA NOT_NAMED 1899-09-01 18:00:00 TS 39.9000 -35.7000 40 hurdat_atl main 1586 1586 O_____________ hurdat_atl AL031899 39.9000 -35.7000 TS 40 0 9 101
1899215N12329 1899 21 NA NA NOT_NAMED 1899-09-01 21:00:00 TS 39.8065 -35.2077 main 1627 1627 P_____________ AL031899 39.8065 -35.2077 TS 42 0 8 105
1899215N12329 1899 21 NA NA NOT_NAMED 1899-09-02 00:00:00 TS 39.7000 -34.7000 45 hurdat_atl main 1668 1668 O_____________ hurdat_atl AL031899 39.7000 -34.7000 TS 45 0 9 101
1899215N12329 1899 21 NA NA NOT_NAMED 1899-09-02 03:00:00 TS 39.6227 -34.0232 main 1724 1724 P_____________ AL031899 39.6227 -34.0232 TS 47 0 11 101
1899215N12329 1899 21 NA NA NOT_NAMED 1899-09-02 06:00:00 TS 39.5000 -33.3000 50 hurdat_atl main 1780 1780 O_____________ hurdat_atl AL031899 39.5000 -33.3000 TS 50 0 11 107
1899215N12329 1899 21 NA NA NOT_NAMED 1899-09-02 09:00:00 TS 39.2874 -32.6124 main 1842 1837 P_____________ AL031899 39.2874 -32.6124 TS 52 0 11 116
1899215N12329 1899 21 NA NA NOT_NAMED 1899-09-02 12:00:00 TS 39.0000 -32.0000 55 hurdat_atl main 1837 1783 O_____________ hurdat_atl AL031899 39.0000 -32.0000 TS 55 0 11 127
1899215N12329 1899 21 NA NA NOT_NAMED 1899-09-02 15:00:00 TS 38.6422 -31.4974 main 1776 1729 P_____________ AL031899 38.6422 -31.4974 TS 57 0 10 135
1899215N12329 1899 21 NA NA NOT_NAMED 1899-09-02 18:00:00 TS 38.3000 -31.1000 60 hurdat_atl main 1729 1694 O_____________ hurdat_atl AL031899 38.3000 -31.1000 TS 60 0 8 136
1899215N12329 1899 21 NA NA NOT_NAMED 1899-09-02 21:00:00 TS 38.0770 -30.8009 main 1694 1660 P_____________ AL031899 38.0770 -30.8009 TS 62 0 6 130
1899215N12329 1899 21 NA NA NOT_NAMED 1899-09-03 00:00:00 TS 37.9000 -30.5000 65 hurdat_atl main 1660 1619 O_____________ hurdat_atl AL031899 37.9000 -30.5000 HU 65 1 7 124
1899215N12329 1899 21 NA NA NOT_NAMED 1899-09-03 03:00:00 TS 37.6851 -30.0723 main 1619 1570 P_____________ AL031899 37.6851 -30.0723 HU 67 1 8 119
1899215N12329 1899 21 NA NA NOT_NAMED 1899-09-03 06:00:00 TS 37.5000 -29.6000 70 hurdat_atl main 1570 1528 O_____________ hurdat_atl AL031899 37.5000 -29.6000 HU 70 1 8 116
1899215N12329 1899 21 NA NA NOT_NAMED 1899-09-03 09:00:00 TS 37.3321 -29.1718 main 1528 1494 P_____________ AL031899 37.3321 -29.1718 HU 70 1 7 106
1899215N12329 1899 21 NA NA NOT_NAMED 1899-09-03 12:00:00 TS 37.3000 -28.7000 70 hurdat_atl main 1494 1467 O_____________ hurdat_atl AL031899 37.3000 -28.7000 HU 70 1 8 82
1899215N12329 1899 21 NA NA NOT_NAMED 1899-09-03 15:00:00 TS 37.4439 -28.1807 main 1467 1450 P_____________ AL031899 37.4439 -28.1807 HU 67 1 11 62
1899215N12329 1899 21 NA NA NOT_NAMED 1899-09-03 18:00:00 TS 37.8000 -27.5000 65 hurdat_atl main 1451 1432 O_____________ hurdat_atl AL031899 37.8000 -27.5000 HU 65 1 15 57
1899215N12329 1899 21 NA NA NOT_NAMED 1899-09-03 21:00:00 TS 38.2485 -26.6283 main 1428 1388 P_____________ AL031899 38.2485 -26.6283 HU 62 0 20 53
1899215N12329 1899 21 NA NA NOT_NAMED 1899-09-04 00:00:00 ET 39.0000 -25.5000 60 hurdat_atl main 1378 1264 O_____________ hurdat_atl AL031899 39.0000 -25.5000 EX 60 -4 27 47
1899215N12329 1899 21 NA NA NOT_NAMED 1899-09-04 03:00:00 ET 40.0758 -24.1415 main 1256 1104 P_____________ AL031899 40.0758 -24.1415 EX 57 -4 34 43
1899215N12329 1899 21 NA NA NOT_NAMED 1899-09-04 06:00:00 ET 41.5000 -22.5000 55 hurdat_atl main 1093 914 O_____________ hurdat_atl AL031899 41.5000 -22.5000 EX 55 -4 41 42
1899215N12329 1899 21 NA NA NOT_NAMED 1899-09-04 09:00:00 ET 43.1419 -20.5038 main 906 770 P_____________ AL031899 43.1419 -20.5038 EX 52 -4 46 40
1899215N12329 1899 21 NA NA NOT_NAMED 1899-09-04 12:00:00 ET 45.0000 -18.5000 50 hurdat_atl main 765 715 O_____________ hurdat_atl AL031899 45.0000 -18.5000 EX 50 -4 46 34
1899215N12329 1899 21 NA NA NOT_NAMED 1899-09-04 15:00:00 ET 46.9729 -16.8870 main 702 485 P_____________ AL031899 46.9729 -16.8870 EX 47 -4 45 27
1899215N12329 1899 21 NA NA NOT_NAMED 1899-09-04 18:00:00 ET 49.0000 -15.5000 45 hurdat_atl main 472 O_____________ hurdat_atl AL031899 49.0000 -15.5000 EX 45 -4 44 24

IBTrACS Databaseについて

本データベースは、米国NOAAが公開する1842年以降の世界の熱帯低気圧のベストトラックデータアーカイブInternational Best Track Archive for Climate Stewardship (IBTrACS)を、ウェブで閲覧しやすい形式に変換したものです。

最終更新日:2021-10-25